Time;durP1;ratioP1;P1;durP2;ratioP2;P2;SDS_P1;SDS_P2;PMS_P1;PMS_P2;Temp;Humidity;BMP_temperature;BMP_pressure;BME280_temperature;BME280_humidity;BME280_pressure;Samples;Min_cycle;Max_cycle;Signal;HPM_P1;HPM_P2
2023/05/04 00:01:14;;;;;;;11.20;4.80;;;4.60;99.90;;;;;;5073324;28;20035;-53
2023/05/04 00:03:40;;;;;;;13.43;5.90;;;4.60;99.90;;;;;;5072883;28;20048;-54
2023/05/04 00:06:06;;;;;;;8.90;4.78;;;4.50;99.90;;;;;;5054967;28;20051;-54
2023/05/04 00:08:32;;;;;;;11.52;5.25;;;4.50;99.90;;;;;;5073134;28;20189;-53
2023/05/04 00:10:57;;;;;;;12.50;6.13;;;4.50;99.90;;;;;;5073121;28;20526;-53
2023/05/04 00:13:23;;;;;;;13.48;5.85;;;4.50;99.90;;;;;;5072969;28;20052;-53
2023/05/04 00:15:49;;;;;;;10.20;5.10;;;4.50;99.90;;;;;;5073028;28;20123;-54
2023/05/04 00:18:14;;;;;;;9.30;5.07;;;4.40;99.90;;;;;;5072765;28;20048;-53
2023/05/04 00:20:40;;;;;;;11.32;6.60;;;4.40;99.90;;;;;;5054566;28;20041;-54
2023/05/04 00:23:06;;;;;;;9.60;4.80;;;4.40;99.90;;;;;;5072798;28;20094;-53
2023/05/04 00:25:31;;;;;;;12.77;5.78;;;4.40;99.90;;;;;;5072669;28;20057;-53
2023/05/04 00:27:57;;;;;;;13.52;5.75;;;4.30;99.90;;;;;;5072698;28;20036;-54
2023/05/04 00:30:23;;;;;;;12.35;5.70;;;4.30;99.90;;;;;;5072679;28;20487;-53
2023/05/04 00:32:48;;;;;;;11.13;6.25;;;4.30;99.90;;;;;;5072622;28;20040;-53
2023/05/04 00:35:14;;;;;;;11.77;6.00;;;4.30;99.90;;;;;;5072878;28;20040;-52
2023/05/04 00:37:40;;;;;;;10.30;5.65;;;4.30;99.90;;;;;;5068214;28;20487;-54
2023/05/04 00:40:06;;;;;;;10.75;6.28;;;4.20;99.90;;;;;;5072493;28;20059;-52
2023/05/04 00:42:32;;;;;;;13.02;7.18;;;4.20;99.90;;;;;;5071747;28;20594;-53
2023/05/04 00:44:57;;;;;;;12.27;5.72;;;4.20;99.90;;;;;;5064294;28;20047;-53
2023/05/04 00:47:23;;;;;;;11.60;7.82;;;4.20;99.90;;;;;;5071184;28;20496;-53
2023/05/04 00:49:50;;;;;;;10.77;5.65;;;4.10;99.90;;;;;;5071122;28;20040;-53
2023/05/04 00:52:17;;;;;;;10.43;5.60;;;4.10;99.90;;;;;;5071867;28;20076;-53
2023/05/04 00:54:45;;;;;;;12.77;6.25;;;4.10;99.90;;;;;;5071477;28;20040;-54
2023/05/04 00:57:11;;;;;;;11.73;6.72;;;3.90;99.90;;;;;;5071144;28;20486;-53
2023/05/04 00:59:38;;;;;;;10.82;5.53;;;4.10;99.90;;;;;;5071587;28;20044;-51
2023/05/04 01:02:03;;;;;;;11.73;6.18;;;4.00;99.90;;;;;;5072307;28;20467;-54
2023/05/04 01:04:29;;;;;;;11.10;6.30;;;3.80;99.90;;;;;;5071774;28;20041;-54
2023/05/04 01:06:55;;;;;;;11.55;5.78;;;4.00;99.90;;;;;;5071457;28;20040;-53
2023/05/04 01:09:48;;;;;;;13.02;6.10;;;3.90;99.90;;;;;;5054322;28;20057;-53
2023/05/04 01:12:39;;;;;;;11.55;5.68;;;3.90;99.90;;;;;;5072089;28;20123;-53
2023/05/04 01:15:07;;;;;;;13.00;6.13;;;3.90;99.90;;;;;;5072229;28;20063;-54
2023/05/04 01:17:33;;;;;;;10.88;5.72;;;3.90;99.90;;;;;;5071642;28;20056;-54
2023/05/04 01:19:58;;;;;;;9.07;5.88;;;3.90;99.90;;;;;;5071696;28;20040;-53
2023/05/04 01:22:25;;;;;;;10.57;6.05;;;3.90;99.90;;;;;;5071724;28;20471;-55
2023/05/04 01:24:51;;;;;;;11.60;6.35;;;3.80;99.90;;;;;;5053597;28;20390;-53
2023/05/04 01:27:19;;;;;;;10.75;6.78;;;3.80;99.90;;;;;;5071378;28;20040;-51
2023/05/04 01:30:09;;;;;;;12.43;6.22;;;3.80;99.90;;;;;;5071778;28;20068;-53
2023/05/04 01:32:37;;;;;;;12.32;6.30;;;3.80;99.90;;;;;;5071508;28;20052;-53
2023/05/04 01:35:03;;;;;;;10.98;6.13;;;3.80;99.90;;;;;;5071536;28;20055;-54
2023/05/04 01:37:29;;;;;;;10.90;6.30;;;3.80;99.90;;;;;;5066894;28;20040;-53
2023/05/04 01:39:55;;;;;;;9.25;6.68;;;3.80;99.90;;;;;;5071125;28;20052;-54
2023/05/04 01:42:20;;;;;;;10.82;5.93;;;3.80;99.90;;;;;;5053357;28;20113;-53
2023/05/04 01:44:46;;;;;;;13.25;6.53;;;3.80;99.90;;;;;;5071288;28;20490;-53
2023/05/04 01:47:11;;;;;;;9.77;5.85;;;3.80;99.90;;;;;;5071350;28;20125;-52
2023/05/04 01:49:37;;;;;;;9.32;5.55;;;3.80;99.90;;;;;;5071280;28;20036;-54
2023/05/04 01:52:03;;;;;;;11.95;5.90;;;3.80;99.90;;;;;;5071076;28;20076;-53
2023/05/04 01:54:29;;;;;;;13.80;6.43;;;3.80;99.90;;;;;;5070724;28;20565;-54
2023/05/04 01:56:55;;;;;;;12.38;7.10;;;3.80;99.90;;;;;;5052910;28;20142;-53
2023/05/04 01:59:20;;;;;;;9.50;5.72;;;3.80;99.90;;;;;;5070919;28;20040;-54
2023/05/04 02:01:46;;;;;;;11.63;6.43;;;3.80;99.90;;;;;;5071070;28;20036;-52
2023/05/04 02:04:12;;;;;;;12.02;6.40;;;3.80;99.90;;;;;;5070785;28;20158;-50
2023/05/04 02:06:37;;;;;;;9.70;5.60;;;3.80;99.90;;;;;;5071167;28;20440;-53
2023/05/04 02:09:03;;;;;;;9.93;5.90;;;3.70;99.90;;;;;;5070643;28;20558;-53
2023/05/04 02:11:29;;;;;;;13.80;6.43;;;3.40;99.90;;;;;;5070643;28;20122;-52
2023/05/04 02:13:54;;;;;;;11.15;5.72;;;3.60;99.90;;;;;;5070678;28;20115;-54
2023/05/04 02:16:20;;;;;;;9.82;5.30;;;3.60;99.90;;;;;;5070622;28;20040;-52
2023/05/04 02:18:46;;;;;;;10.25;5.38;;;3.60;99.90;;;;;;5070359;28;20119;-49
2023/05/04 02:21:12;;;;;;;11.43;5.85;;;3.50;99.90;;;;;;5070727;28;20452;-52
2023/05/04 02:23:38;;;;;;;11.75;6.03;;;3.40;99.90;;;;;;5070723;28;20075;-54
2023/05/04 02:26:04;;;;;;;10.00;6.00;;;3.40;99.90;;;;;;5070413;28;20103;-52
2023/05/04 02:28:29;;;;;;;14.25;6.90;;;3.40;99.90;;;;;;5070610;28;20053;-54
2023/05/04 02:30:55;;;;;;;12.85;6.53;;;3.40;99.90;;;;;;5070489;28;20040;-54
2023/05/04 02:33:21;;;;;;;12.55;6.57;;;3.30;99.90;;;;;;5070247;28;20047;-54
2023/05/04 02:35:46;;;;;;;15.15;6.65;;;3.30;99.90;;;;;;5068774;28;20043;-52
2023/05/04 02:38:12;;;;;;;12.20;7.80;;;3.30;99.90;;;;;;5065851;28;20399;-53
2023/05/04 02:40:38;;;;;;;11.70;5.53;;;5.20;99.90;;;;;;5070215;28;20052;-53
2023/05/04 02:43:03;;;;;;;11.35;6.05;;;3.30;99.90;;;;;;5069053;28;20108;-52
2023/05/04 02:45:29;;;;;;;12.52;6.70;;;3.30;99.90;;;;;;5068889;28;20083;-52
2023/05/04 02:47:55;;;;;;;13.00;6.05;;;3.30;99.90;;;;;;5049985;28;20048;-53
2023/05/04 02:50:20;;;;;;;16.17;7.25;;;3.30;99.90;;;;;;5064108;28;20056;-53
2023/05/04 02:52:46;;;;;;;14.20;7.22;;;3.30;99.90;;;;;;5064235;28;20123;-52
2023/05/04 02:55:11;;;;;;;11.93;6.57;;;3.20;99.90;;;;;;5054656;28;20040;-53
2023/05/04 02:57:37;;;;;;;15.57;6.40;;;3.30;99.90;;;;;;5061175;28;20040;-53
2023/05/04 03:00:05;;;;;;;10.07;6.22;;;3.40;99.90;;;;;;5066136;28;20128;-53
2023/05/04 03:02:31;;;;;;;13.32;7.50;;;3.30;99.90;;;;;;5048537;28;20044;-53
2023/05/04 03:04:57;;;;;;;12.38;7.00;;;3.30;99.90;;;;;;5064204;28;20520;-51
2023/05/04 03:07:22;;;;;;;13.35;7.47;;;3.30;99.90;;;;;;5070334;28;20382;-53
2023/05/04 03:09:48;;;;;;;16.92;6.95;;;3.30;99.90;;;;;;5069925;28;20036;-51
2023/05/04 03:12:14;;;;;;;14.95;6.85;;;3.30;99.90;;;;;;5069959;28;20120;-53
2023/05/04 03:14:40;;;;;;;14.05;8.15;;;3.70;99.90;;;;;;5068343;28;20116;-52
2023/05/04 03:17:05;;;;;;;15.52;7.28;;;3.40;99.90;;;;;;5069823;28;20115;-50
2023/05/04 03:19:31;;;;;;;14.63;7.53;;;3.40;99.90;;;;;;5069979;28;20047;-51
2023/05/04 03:21:57;;;;;;;18.13;7.25;;;3.40;99.90;;;;;;5069735;28;20574;-53
2023/05/04 03:24:22;;;;;;;16.00;8.52;;;3.50;99.90;;;;;;5069979;28;20526;-52
2023/05/04 03:26:48;;;;;;;15.70;7.40;;;3.50;99.90;;;;;;5069695;28;20402;-54
2023/05/04 03:29:14;;;;;;;15.80;8.65;;;3.60;99.90;;;;;;5071135;28;20048;-53
2023/05/04 03:31:39;;;;;;;16.13;8.43;;;3.60;99.90;;;;;;5073080;28;20047;-51
2023/05/04 03:34:05;;;;;;;18.38;8.00;;;3.60;99.90;;;;;;5073707;28;20136;-49
2023/05/04 03:36:31;;;;;;;14.52;8.23;;;3.70;99.90;;;;;;5073756;28;20174;-52
2023/05/04 03:38:56;;;;;;;15.20;8.00;;;3.70;99.90;;;;;;5073954;28;20045;-53
2023/05/04 03:41:22;;;;;;;16.05;8.07;;;3.70;99.90;;;;;;5055933;28;20052;-53
2023/05/04 03:43:48;;;;;;;15.13;7.82;;;3.80;99.90;;;;;;5073704;28;20047;-52
2023/05/04 03:46:13;;;;;;;13.50;8.00;;;3.80;99.90;;;;;;5073730;28;20039;-52
2023/05/04 03:48:40;;;;;;;15.23;7.97;;;3.80;99.90;;;;;;5073737;28;20131;-53
2023/05/04 03:51:06;;;;;;;15.27;8.25;;;3.90;99.90;;;;;;5073470;28;20040;-52
2023/05/04 03:53:34;;;;;;;17.63;8.30;;;3.90;99.90;;;;;;5073688;28;20041;-50
2023/05/04 03:56:00;;;;;;;14.65;8.15;;;3.90;99.90;;;;;;5073763;28;20102;-53
2023/05/04 03:58:25;;;;;;;16.17;8.40;;;3.90;99.90;;;;;;5073853;28;20036;-51
2023/05/04 04:00:51;;;;;;;12.18;8.15;;;4.00;99.90;;;;;;5073595;28;20470;-52
2023/05/04 04:03:17;;;;;;;13.90;8.32;;;4.00;99.90;;;;;;5073219;28;20036;-52
2023/05/04 04:05:43;;;;;;;16.00;8.10;;;4.00;99.90;;;;;;5064951;28;20113;-53
2023/05/04 04:08:08;;;;;;;13.57;7.90;;;4.00;99.90;;;;;;5073370;28;20033;-53
2023/05/04 04:10:34;;;;;;;13.13;7.57;;;4.00;99.90;;;;;;5073460;28;20048;-52
2023/05/04 04:13:00;;;;;;;13.02;7.85;;;4.00;99.90;;;;;;5073233;28;20038;-54
2023/05/04 04:15:26;;;;;;;15.98;8.30;;;4.00;99.90;;;;;;5073307;28;20116;-52
2023/05/04 04:17:51;;;;;;;15.13;8.18;;;4.00;99.90;;;;;;5073331;28;20087;-52
2023/05/04 04:20:17;;;;;;;14.88;8.25;;;4.00;99.90;;;;;;5072977;28;20053;-52
2023/05/04 04:22:43;;;;;;;19.10;8.63;;;4.10;99.90;;;;;;5072933;28;20032;-52
2023/05/04 04:25:09;;;;;;;15.18;7.85;;;4.10;99.90;;;;;;5072892;28;20051;-53
2023/05/04 04:27:35;;;;;;;15.40;9.07;;;4.20;99.90;;;;;;5072887;28;20047;-51
2023/05/04 04:30:05;;;;;;;15.88;8.25;;;4.20;99.90;;;;;;5073034;28;20044;-53
2023/05/04 04:32:30;;;;;;;21.38;8.88;;;4.30;99.90;;;;;;5073128;28;20036;-50
2023/05/04 04:34:56;;;;;;;15.27;8.43;;;4.30;99.90;;;;;;5073192;28;20398;-52
2023/05/04 04:37:22;;;;;;;16.35;8.35;;;4.30;99.90;;;;;;5073172;28;20040;-52
2023/05/04 04:39:47;;;;;;;14.40;7.93;;;4.40;99.90;;;;;;5072886;28;20696;-50
2023/05/04 04:42:13;;;;;;;16.77;8.10;;;4.50;99.90;;;;;;5072387;28;20063;-52
2023/05/04 04:44:39;;;;;;;13.43;8.00;;;4.50;99.90;;;;;;5073136;28;20089;-51
2023/05/04 04:47:05;;;;;;;14.07;8.25;;;4.60;99.90;;;;;;5073195;28;20138;-52
2023/05/04 04:49:31;;;;;;;20.90;8.13;;;4.60;99.90;;;;;;5073348;28;20059;-53
2023/05/04 04:51:56;;;;;;;16.67;8.02;;;4.70;99.90;;;;;;5072827;28;20045;-53
2023/05/04 04:54:22;;;;;;;18.15;8.80;;;4.80;99.90;;;;;;5072895;28;20036;-52
2023/05/04 04:56:48;;;;;;;13.63;8.05;;;4.80;99.90;;;;;;5072887;28;20046;-51
2023/05/04 04:59:13;;;;;;;14.20;7.82;;;4.90;99.90;;;;;;5072626;28;20048;-51
2023/05/04 05:01:41;;;;;;;16.70;7.75;;;5.60;99.90;;;;;;5072610;28;20037;-53
2023/05/04 05:04:06;;;;;;;14.45;6.95;;;5.00;99.90;;;;;;5067196;28;20072;-51
2023/05/04 05:06:32;;;;;;;16.30;7.13;;;5.10;99.90;;;;;;5069096;28;20075;-51
2023/05/04 05:08:58;;;;;;;12.45;7.28;;;5.10;99.90;;;;;;5072564;28;20072;-54
2023/05/04 05:11:24;;;;;;;17.35;7.90;;;5.10;99.90;;;;;;5072483;28;20490;-51
2023/05/04 05:13:49;;;;;;;17.73;8.63;;;5.30;99.90;;;;;;5072452;28;20047;-51
2023/05/04 05:16:15;;;;;;;12.02;7.18;;;5.30;99.90;;;;;;5072242;28;20036;-53
2023/05/04 05:18:41;;;;;;;15.48;7.10;;;5.40;99.90;;;;;;5071476;28;20109;-52
2023/05/04 05:21:08;;;;;;;16.23;9.15;;;5.50;99.90;;;;;;5071978;28;20036;-52
2023/05/04 05:23:34;;;;;;;14.60;8.07;;;5.70;99.90;;;;;;5071858;28;20084;-53
2023/05/04 05:26:00;;;;;;;12.65;7.13;;;5.80;99.90;;;;;;5071653;28;20344;-52
2023/05/04 05:28:26;;;;;;;15.00;7.47;;;5.90;99.90;;;;;;5071803;28;20048;-52
2023/05/04 05:30:52;;;;;;;16.98;7.15;;;5.80;99.90;;;;;;5071778;28;20044;-53
2023/05/04 05:33:17;;;;;;;15.18;7.38;;;6.10;99.90;;;;;;5071925;28;20037;-49
2023/05/04 05:35:43;;;;;;;11.88;6.05;;;6.20;99.90;;;;;;5071614;28;20124;-53
2023/05/04 05:38:09;;;;;;;14.35;6.72;;;6.20;99.90;;;;;;5071401;28;20032;-54
2023/05/04 05:40:35;;;;;;;13.05;6.97;;;6.30;99.90;;;;;;5071464;28;20060;-52
2023/05/04 05:43:03;;;;;;;11.85;7.53;;;6.80;99.90;;;;;;5071218;28;20115;-52
2023/05/04 05:45:28;;;;;;;12.50;7.03;;;6.50;99.90;;;;;;5071241;28;20048;-53
2023/05/04 05:47:54;;;;;;;13.48;7.75;;;6.60;99.90;;;;;;5071121;28;20044;-51
2023/05/04 05:50:22;;;;;;;9.90;6.20;;;6.70;99.90;;;;;;5071577;28;20810;-51
2023/05/04 05:52:47;;;;;;;15.35;6.82;;;6.80;99.90;;;;;;5071191;28;20371;-53
2023/05/04 05:55:13;;;;;;;13.05;6.88;;;6.90;99.90;;;;;;5071541;28;20047;-51
2023/05/04 05:57:39;;;;;;;10.65;6.03;;;7.00;99.90;;;;;;5071274;28;20632;-53
2023/05/04 06:00:05;;;;;;;10.85;6.55;;;7.20;99.90;;;;;;5070949;28;20033;-51
2023/05/04 06:02:31;;;;;;;11.75;6.70;;;7.30;99.90;;;;;;5070978;28;20493;-53
2023/05/04 06:04:56;;;;;;;13.52;6.57;;;8.20;99.90;;;;;;5062408;28;20048;-53
2023/05/04 06:07:22;;;;;;;10.88;6.50;;;7.60;99.90;;;;;;5070631;28;20044;-53
2023/05/04 06:09:48;;;;;;;12.80;5.93;;;7.70;99.90;;;;;;5069738;28;20043;-54
2023/05/04 06:12:15;;;;;;;11.45;5.80;;;7.80;99.90;;;;;;5069708;28;20039;-53
2023/05/04 06:14:42;;;;;;;9.88;5.72;;;8.30;99.90;;;;;;5069718;28;20102;-54
2023/05/04 06:17:08;;;;;;;13.68;5.90;;;8.10;99.90;;;;;;5069667;28;20041;-54
2023/05/04 06:19:35;;;;;;;9.70;5.45;;;8.20;99.90;;;;;;5069111;28;20033;-50
2023/05/04 06:22:01;;;;;;;13.07;6.07;;;8.20;99.90;;;;;;5070307;28;20078;-51
2023/05/04 06:24:28;;;;;;;12.45;6.15;;;8.50;99.90;;;;;;5070746;28;20083;-52
2023/05/04 06:26:55;;;;;;;12.13;6.07;;;8.60;99.60;;;;;;5070430;28;20056;-52
2023/05/04 06:29:21;;;;;;;12.80;5.95;;;8.80;99.60;;;;;;5070190;28;20048;-53
2023/05/04 06:31:46;;;;;;;10.68;5.85;;;9.90;99.20;;;;;;5070535;28;20063;-54
2023/05/04 06:34:12;;;;;;;11.93;6.55;;;9.30;98.20;;;;;;5070691;28;20043;-54
2023/05/04 06:36:38;;;;;;;10.48;5.75;;;9.60;98.10;;;;;;5070393;28;20059;-52
2023/05/04 06:39:04;;;;;;;10.55;5.05;;;9.70;97.60;;;;;;5070437;28;20372;-54
2023/05/04 06:41:30;;;;;;;9.52;5.47;;;10.20;96.70;;;;;;5070426;28;20036;-54
2023/05/04 06:43:56;;;;;;;8.68;5.00;;;9.80;96.60;;;;;;5052341;28;20041;-53
2023/05/04 06:46:22;;;;;;;10.93;4.82;;;9.80;96.10;;;;;;5070596;28;21153;-54
2023/05/04 06:48:47;;;;;;;13.32;5.78;;;10.40;95.60;;;;;;5070176;28;20029;-54
2023/05/04 06:51:13;;;;;;;12.88;5.15;;;10.10;96.00;;;;;;5070192;28;20047;-54
2023/05/04 06:53:39;;;;;;;10.95;5.50;;;10.20;95.30;;;;;;5070109;28;20859;-53
2023/05/04 06:56:06;;;;;;;8.75;5.35;;;10.50;95.30;;;;;;5070008;28;20032;-52
2023/05/04 06:58:32;;;;;;;10.10;5.25;;;10.70;95.30;;;;;;5070158;28;20039;-54
2023/05/04 07:00:57;;;;;;;10.60;5.20;;;10.90;94.50;;;;;;5061877;28;20049;-54
2023/05/04 07:03:23;;;;;;;9.70;5.57;;;11.20;93.90;;;;;;5069822;28;20048;-53
2023/05/04 07:05:49;;;;;;;11.57;4.97;;;11.20;93.80;;;;;;5061664;28;20482;-51
2023/05/04 07:08:16;;;;;;;12.75;5.03;;;11.30;93.60;;;;;;5070149;28;20109;-52
2023/05/04 07:10:42;;;;;;;11.35;5.03;;;11.30;93.60;;;;;;5070264;28;20044;-52
2023/05/04 07:13:08;;;;;;;8.48;4.65;;;11.40;93.40;;;;;;5070192;28;20044;-55
2023/05/04 07:15:34;;;;;;;8.65;4.90;;;11.40;93.30;;;;;;5070063;28;20098;-54
2023/05/04 07:18:00;;;;;;;8.07;5.13;;;11.40;93.20;;;;;;5070305;28;20036;-54
2023/05/04 07:20:26;;;;;;;9.90;4.70;;;11.60;93.10;;;;;;5069685;28;20110;-54
2023/05/04 07:22:55;;;;;;;8.18;4.53;;;11.90;93.10;;;;;;5070199;28;20048;-54
2023/05/04 07:25:25;;;;;;;7.63;4.80;;;11.70;92.70;;;;;;5069850;28;20060;-54
2023/05/04 07:27:51;;;;;;;9.60;4.85;;;11.80;92.40;;;;;;5069778;28;20036;-52
2023/05/04 07:30:18;;;;;;;9.07;4.47;;;12.20;92.60;;;;;;5070116;28;20128;-53
2023/05/04 07:32:44;;;;;;;10.35;4.55;;;12.00;92.50;;;;;;5070090;28;20041;-53
2023/05/04 07:35:10;;;;;;;7.47;3.90;;;12.10;92.30;;;;;;5068632;28;20040;-54
2023/05/04 07:37:35;;;;;;;7.95;4.55;;;12.20;92.50;;;;;;5069857;28;20037;-54
2023/05/04 07:40:04;;;;;;;10.50;4.95;;;12.50;92.40;;;;;;5069960;28;20072;-53
2023/05/04 07:42:30;;;;;;;7.60;4.07;;;12.50;93.00;;;;;;5069977;28;20080;-54
2023/05/04 07:44:56;;;;;;;6.43;4.15;;;12.70;91.80;;;;;;5069483;28;20047;-54
2023/05/04 07:47:22;;;;;;;8.43;3.78;;;12.80;91.10;;;;;;5069497;28;20047;-53
2023/05/04 07:49:48;;;;;;;8.00;4.20;;;13.00;95.60;;;;;;5069386;28;20040;-53
2023/05/04 07:52:14;;;;;;;7.28;3.28;;;13.10;90.50;;;;;;5033771;28;20053;-54
2023/05/04 07:54:40;;;;;;;6.25;3.78;;;13.40;90.10;;;;;;5080140;28;20024;-53
2023/05/04 07:57:06;;;;;;;7.60;3.85;;;13.30;89.70;;;;;;5065105;28;20504;-53
2023/05/04 07:59:32;;;;;;;5.65;3.95;;;13.40;89.50;;;;;;5054850;28;20106;-54
2023/05/04 08:01:57;;;;;;;6.78;3.03;;;13.50;88.60;;;;;;5054247;28;20147;-55
2023/05/04 08:04:23;;;;;;;9.18;4.10;;;13.60;88.60;;;;;;5059679;28;20151;-59
2023/05/04 08:06:49;;;;;;;8.23;3.25;;;13.60;87.60;;;;;;5061236;28;20063;-52
2023/05/04 08:09:15;;;;;;;7.28;3.38;;;13.70;86.90;;;;;;5063033;28;20102;-52
2023/05/04 08:11:41;;;;;;;9.45;3.72;;;13.80;86.00;;;;;;5057372;28;20915;-54
2023/05/04 08:14:07;;;;;;;8.68;4.22;;;13.90;85.80;;;;;;5061316;28;20043;-54
2023/05/04 08:16:33;;;;;;;7.50;3.72;;;14.20;86.60;;;;;;5063455;28;20043;-53
2023/05/04 08:19:00;;;;;;;5.97;3.15;;;14.10;85.70;;;;;;5073151;28;20862;-54
2023/05/04 08:21:26;;;;;;;15.63;4.43;;;14.20;84.90;;;;;;5065887;28;20884;-58
2023/05/04 08:23:53;;;;;;;5.90;3.28;;;14.40;84.20;;;;;;5065878;28;20037;-59
2023/05/04 08:26:19;;;;;;;9.18;3.78;;;14.50;83.30;;;;;;5066926;28;20495;-58
2023/05/04 08:28:45;;;;;;;7.40;3.50;;;14.60;82.50;;;;;;5048908;28;20052;-58
2023/05/04 08:31:11;;;;;;;7.55;3.40;;;14.70;82.20;;;;;;5080816;28;20436;-61
2023/05/04 08:33:37;;;;;;;7.65;3.38;;;14.90;82.70;;;;;;5003687;28;20101;-60
2023/05/04 08:36:04;;;;;;;6.25;3.33;;;15.10;84.40;;;;;;5016559;28;20809;-58
2023/05/04 08:38:30;;;;;;;8.20;3.75;;;15.30;82.20;;;;;;5036908;28;20782;-59
2023/05/04 08:40:56;;;;;;;7.28;3.40;;;15.40;81.10;;;;;;5053239;28;20083;-61
2023/05/04 08:43:22;;;;;;;7.57;4.22;;;15.00;83.20;;;;;;5055854;28;20067;-59
2023/05/04 08:45:49;;;;;;;7.53;3.45;;;15.60;79.90;;;;;;5057493;28;20032;-60
2023/05/04 08:48:14;;;;;;;5.65;3.22;;;15.70;80.50;;;;;;5056825;28;20037;-58
2023/05/04 08:50:41;;;;;;;5.53;3.28;;;15.90;80.20;;;;;;5058159;28;20044;-58
2023/05/04 08:53:10;;;;;;;7.50;3.50;;;16.00;80.40;;;;;;5033124;28;20070;-57
2023/05/04 08:55:38;;;;;;;11.15;3.33;;;16.20;78.10;;;;;;5047413;28;20040;-58
2023/05/04 08:58:08;;;;;;;7.20;3.20;;;16.20;83.20;;;;;;5060264;28;20071;-64
2023/05/04 09:00:35;;;;;;;10.07;3.03;;;16.40;81.00;;;;;;5058820;28;20123;-68
2023/05/04 09:03:03;;;;;;;7.72;3.67;;;16.50;76.60;;;;;;5057892;28;20550;-63
2023/05/04 09:05:30;;;;;;;8.75;3.45;;;16.50;77.80;;;;;;5057409;28;20040;-62
2023/05/04 09:07:56;;;;;;;9.68;3.53;;;16.60;74.70;;;;;;5055945;28;20391;-59
2023/05/04 09:10:23;;;;;;;5.82;3.20;;;16.70;75.50;;;;;;5054968;28;20040;-64
2023/05/04 09:12:52;;;;;;;7.32;3.03;;;16.80;75.80;;;;;;5044233;28;20072;-64
2023/05/04 09:15:19;;;;;;;8.50;2.97;;;16.90;74.30;;;;;;5046001;28;20718;-59
2023/05/04 09:18:02;;;;;;;6.38;3.67;;;16.90;73.50;;;;;;5050692;28;20941;-60
2023/05/04 09:20:29;;;;;;;5.35;3.05;;;17.10;74.40;;;;;;5055766;28;20060;-59
2023/05/04 09:23:08;;;;;;;7.82;3.05;;;17.10;75.30;;;;;;5054465;28;20107;-58
2023/05/04 09:25:49;;;;;;;7.82;3.28;;;17.20;75.60;;;;;;5060519;28;20055;-57
2023/05/04 09:28:16;;;;;;;6.72;3.25;;;17.20;73.10;;;;;;5065928;28;20516;-60
2023/05/04 09:30:42;;;;;;;9.68;3.30;;;17.30;74.30;;;;;;5057326;28;20043;-56
2023/05/04 09:33:09;;;;;;;4.90;2.63;;;17.30;73.40;;;;;;5040295;28;20117;-60
2023/05/04 09:35:39;;;;;;;4.88;2.60;;;17.60;73.40;;;;;;5053430;28;20048;-58
2023/05/04 09:38:06;;;;;;;5.75;3.00;;;17.40;71.40;;;;;;5041919;28;20502;-52
2023/05/04 09:40:40;;;;;;;5.53;2.90;;;17.40;73.50;;;;;;5026339;28;20076;-58
2023/05/04 09:43:09;;;;;;;10.95;3.05;;;17.50;74.30;;;;;;5070604;28;20147;-58
2023/05/04 09:45:44;;;;;;;4.50;2.90;;;17.50;74.00;;;;;;5070532;28;20709;-58
2023/05/04 09:48:25;;;;;;;6.97;3.03;;;17.70;65.90;;;;;;5071320;28;20055;-58
2023/05/04 09:51:05;;;;;;;6.05;2.63;;;17.80;70.90;;;;;;5053396;28;20056;-58
2023/05/04 09:53:31;;;;;;;6.00;3.03;;;17.80;68.60;;;;;;5071195;28;20094;-59
2023/05/04 09:56:22;;;;;;;8.80;3.47;;;17.90;69.60;;;;;;5053200;28;20052;-58
2023/05/04 09:58:49;;;;;;;5.18;2.97;;;18.00;68.30;;;;;;5071276;28;20399;-59
2023/05/04 10:01:15;;;;;;;6.40;3.50;;;18.00;68.80;;;;;;5070903;28;20098;-58
2023/05/04 10:03:42;;;;;;;10.07;3.10;;;17.90;67.30;;;;;;5070784;28;20040;-58
2023/05/04 10:06:10;;;;;;;5.93;3.10;;;17.90;67.80;;;;;;5071082;28;20040;-58
2023/05/04 10:08:37;;;;;;;6.10;2.75;;;17.90;67.60;;;;;;5071206;28;20040;-59
2023/05/04 10:11:03;;;;;;;5.57;2.85;;;17.80;68.20;;;;;;5070725;28;20048;-58
2023/05/04 10:13:29;;;;;;;4.45;2.90;;;18.00;68.00;;;;;;5052250;28;20499;-58
2023/05/04 10:16:25;;;;;;;5.00;3.30;;;18.10;68.00;;;;;;5070584;28;20123;-58
2023/05/04 10:19:11;;;;;;;7.82;3.38;;;18.10;63.90;;;;;;5069845;28;20045;-58
2023/05/04 10:21:46;;;;;;;7.07;4.30;;;18.10;65.40;;;;;;5069540;28;20048;-58
2023/05/04 10:24:35;;;;;;;7.25;3.83;;;18.00;67.00;;;;;;5069824;28;20087;-58
2023/05/04 10:27:10;;;;;;;7.13;3.10;;;18.00;66.30;;;;;;5062317;28;20056;-58
2023/05/04 10:29:37;;;;;;;7.97;3.30;;;18.10;67.90;;;;;;5070558;28;20059;-58
2023/05/04 10:32:03;;;;;;;8.32;3.38;;;18.10;68.10;;;;;;5069086;28;20040;-58
2023/05/04 10:34:31;;;;;;;6.93;3.13;;;18.10;68.00;;;;;;5070486;28;20044;-58
2023/05/04 10:36:58;;;;;;;5.40;3.30;;;18.10;67.80;;;;;;5070702;28;20124;-58
2023/05/04 10:39:26;;;;;;;7.40;3.40;;;18.20;67.80;;;;;;5069545;28;20052;-58
2023/05/04 10:42:04;;;;;;;5.72;3.15;;;18.10;67.10;;;;;;5070276;28;20056;-58
2023/05/04 10:44:50;;;;;;;5.53;2.72;;;18.10;65.70;;;;;;5070560;28;20106;-58
2023/05/04 10:47:33;;;;;;;11.40;3.58;;;18.00;66.50;;;;;;5070639;28;20120;-58
2023/05/04 10:50:06;;;;;;;5.10;3.45;;;18.10;67.20;;;;;;5069410;28;20145;-58
2023/05/04 10:52:47;;;;;;;6.70;3.45;;;18.20;67.60;;;;;;5070018;28;20051;-59
2023/05/04 10:55:13;;;;;;;5.68;3.42;;;18.30;66.70;;;;;;5070298;28;20041;-58
2023/05/04 10:57:48;;;;;;;8.43;3.05;;;18.30;66.70;;;;;;5070116;28;20048;-58
2023/05/04 11:00:14;;;;;;;9.35;3.05;;;18.20;65.70;;;;;;5052209;28;20071;-58
2023/05/04 11:02:40;;;;;;;5.63;2.90;;;18.10;65.90;;;;;;5069105;28;20386;-58
2023/05/04 11:05:06;;;;;;;6.07;3.28;;;18.00;65.90;;;;;;5039291;28;20048;-59
2023/05/04 11:07:38;;;;;;;8.65;4.05;;;17.90;66.50;;;;;;5050252;28;20098;-59
2023/05/04 11:10:19;;;;;;;4.63;3.25;;;18.10;68.30;;;;;;5050083;28;20040;-58
2023/05/04 11:12:45;;;;;;;7.00;3.55;;;17.90;68.10;;;;;;5050354;28;20032;-58
2023/05/04 11:15:11;;;;;;;8.25;3.70;;;17.90;68.50;;;;;;5050305;28;20486;-59
2023/05/04 11:17:49;;;;;;;6.05;2.80;;;17.90;68.00;;;;;;5050423;28;20041;-58
2023/05/04 11:20:26;;;;;;;6.50;2.85;;;17.90;66.40;;;;;;5049898;28;20052;-59
2023/05/04 11:22:53;;;;;;;5.32;2.55;;;17.80;68.70;;;;;;5050081;28;20033;-58
2023/05/04 11:25:29;;;;;;;5.32;2.85;;;17.80;68.70;;;;;;5049995;28;20084;-58
2023/05/04 11:27:55;;;;;;;8.23;3.25;;;17.80;67.50;;;;;;5050123;28;20063;-58
2023/05/04 11:30:30;;;;;;;5.45;2.90;;;17.80;69.80;;;;;;5050009;28;20118;-59
2023/05/04 11:32:58;;;;;;;6.75;2.65;;;17.80;69.40;;;;;;5049041;28;20076;-60
2023/05/04 11:35:26;;;;;;;4.40;2.33;;;17.80;68.60;;;;;;5048689;28;20475;-59
2023/05/04 11:37:52;;;;;;;6.72;2.55;;;18.10;67.90;;;;;;5048872;28;20594;-58
2023/05/04 11:40:27;;;;;;;4.25;2.00;;;17.90;68.80;;;;;;5048828;28;20063;-58
2023/05/04 11:42:55;;;;;;;5.18;3.20;;;17.90;66.00;;;;;;5048946;28;20041;-58
2023/05/04 11:45:24;;;;;;;5.32;2.35;;;18.00;67.60;;;;;;5048951;28;20074;-58
2023/05/04 11:47:51;;;;;;;6.47;2.50;;;18.00;64.40;;;;;;5049698;28;20151;-59
2023/05/04 11:50:19;;;;;;;6.20;2.60;;;18.70;66.50;;;;;;5032806;28;20478;-58
2023/05/04 11:52:46;;;;;;;5.30;2.15;;;18.20;65.10;;;;;;5035689;28;20075;-58
2023/05/04 11:55:29;;;;;;;4.03;2.00;;;18.00;65.20;;;;;;5053460;28;20109;-58
2023/05/04 11:57:59;;;;;;;4.65;1.90;;;18.10;62.70;;;;;;5053548;28;20102;-58
2023/05/04 12:00:45;;;;;;;4.05;2.17;;;18.10;62.60;;;;;;5053231;28;20474;-58
2023/05/04 12:03:13;;;;;;;4.57;1.60;;;18.10;63.40;;;;;;5035220;28;20088;-59
2023/05/04 12:05:46;;;;;;;5.82;2.17;;;18.10;64.30;;;;;;5053160;28;20044;-59
2023/05/04 12:08:30;;;;;;;4.90;2.13;;;18.00;62.10;;;;;;5053409;28;20263;-58
2023/05/04 12:11:12;;;;;;;4.32;2.30;;;18.20;63.40;;;;;;5064164;28;20151;-58
2023/05/04 12:13:39;;;;;;;8.18;2.17;;;18.20;62.00;;;;;;5072812;28;20041;-59
2023/05/04 12:16:12;;;;;;;6.70;2.28;;;18.20;62.60;;;;;;5073209;28;20056;-59
2023/05/04 12:18:38;;;;;;;3.78;2.35;;;18.20;61.00;;;;;;5073084;28;20051;-58
2023/05/04 12:21:09;;;;;;;3.83;2.00;;;18.20;61.50;;;;;;5072732;28;20037;-58
2023/05/04 12:23:35;;;;;;;6.60;1.70;;;18.30;62.30;;;;;;5072789;28;20040;-59
2023/05/04 12:26:02;;;;;;;7.32;1.73;;;18.20;62.10;;;;;;5083427;28;20063;-59
2023/05/04 12:28:28;;;;;;;4.22;2.08;;;18.40;62.20;;;;;;5093034;28;20052;-59
2023/05/04 12:30:55;;;;;;;4.90;1.80;;;18.40;61.80;;;;;;5092823;28;20512;-59
2023/05/04 12:33:20;;;;;;;3.72;1.65;;;18.50;61.80;;;;;;5093285;28;20095;-59
2023/05/04 12:35:47;;;;;;;3.35;1.73;;;18.60;59.90;;;;;;5093078;28;20036;-59
2023/05/04 12:38:12;;;;;;;6.65;2.83;;;18.60;58.70;;;;;;5093120;28;20454;-58
2023/05/04 12:40:38;;;;;;;6.63;2.17;;;18.60;58.70;;;;;;5093238;28;20090;-59
2023/05/04 12:43:04;;;;;;;6.28;2.10;;;18.70;58.40;;;;;;5074945;28;20044;-58
2023/05/04 12:45:29;;;;;;;3.05;1.60;;;18.70;59.10;;;;;;5092856;28;20436;-58
2023/05/04 12:47:55;;;;;;;3.50;2.00;;;18.70;59.30;;;;;;5074792;28;20100;-59
2023/05/04 12:50:21;;;;;;;2.97;1.33;;;18.70;59.50;;;;;;5092610;28;20077;-56